createdAt,value
2022-12-29T00:01:51.191Z,2.67
2022-12-29T00:04:19.641Z,2.58
2022-12-29T00:06:46.079Z,2.65
2022-12-29T00:09:12.473Z,2.56
2022-12-29T00:11:39.062Z,2.71
2022-12-29T00:14:05.458Z,2.95
2022-12-29T00:16:32.062Z,2.65
2022-12-29T00:18:58.503Z,2.62
2022-12-29T00:21:24.859Z,2.71
2022-12-29T00:23:51.194Z,2.53
2022-12-29T00:26:17.648Z,2.48
2022-12-29T00:28:44.238Z,2.49
2022-12-29T00:31:10.968Z,2.40
2022-12-29T00:33:37.594Z,2.42
2022-12-29T00:36:04.123Z,2.35
2022-12-29T00:38:30.489Z,2.44
2022-12-29T00:40:56.843Z,2.19
2022-12-29T00:43:23.624Z,2.00
2022-12-29T00:45:50.028Z,1.86
2022-12-29T00:48:16.543Z,1.60
2022-12-29T00:50:43.494Z,1.79
2022-12-29T00:53:10.005Z,1.79
2022-12-29T00:55:36.454Z,1.79
2022-12-29T00:58:02.930Z,1.89
2022-12-29T01:00:33.640Z,1.80
2022-12-29T01:03:01.163Z,1.75
2022-12-29T01:05:27.771Z,1.91
2022-12-29T01:07:55.263Z,1.97
2022-12-29T01:10:21.964Z,2.00
2022-12-29T01:12:48.334Z,2.14
2022-12-29T01:15:14.666Z,1.99
2022-12-29T01:17:41.067Z,1.86
2022-12-29T01:20:07.910Z,1.90
2022-12-29T01:22:34.621Z,2.51
2022-12-29T01:25:01.008Z,2.46
2022-12-29T01:27:29.707Z,2.15
2022-12-29T01:29:56.083Z,2.39
2022-12-29T01:32:22.461Z,2.69
2022-12-29T01:34:49.560Z,2.76
2022-12-29T01:37:15.940Z,2.69
2022-12-29T01:39:42.643Z,2.75
2022-12-29T01:42:08.970Z,2.72
2022-12-29T01:44:35.309Z,2.93
2022-12-29T01:47:01.713Z,2.92
2022-12-29T01:49:28.066Z,2.62
2022-12-29T01:51:54.872Z,2.63
2022-12-29T01:54:21.509Z,2.73
2022-12-29T01:56:48.392Z,2.48
2022-12-29T01:59:14.770Z,2.53
2022-12-29T02:01:43.414Z,2.54
2022-12-29T02:04:12.003Z,2.54
2022-12-29T02:06:38.416Z,2.51
2022-12-29T02:09:04.814Z,2.40
2022-12-29T02:11:31.197Z,2.49
2022-12-29T02:13:57.560Z,2.26
2022-12-29T02:16:23.996Z,2.22
2022-12-29T02:18:52.865Z,2.24
2022-12-29T02:21:19.917Z,2.40
2022-12-29T02:23:46.465Z,2.11
2022-12-29T02:26:12.862Z,2.05
2022-12-29T02:28:39.374Z,2.24
2022-12-29T02:31:05.722Z,2.06
2022-12-29T02:33:32.090Z,2.00
2022-12-29T02:35:58.441Z,1.95
2022-12-29T02:38:24.835Z,2.00
2022-12-29T02:40:51.440Z,1.88
2022-12-29T02:43:17.858Z,2.03
2022-12-29T02:45:44.471Z,1.87
2022-12-29T02:48:10.887Z,1.85
2022-12-29T02:50:37.279Z,1.98
2022-12-29T02:53:03.685Z,1.96
2022-12-29T02:55:32.398Z,1.87
2022-12-29T02:57:58.893Z,1.83
2022-12-29T03:00:25.568Z,1.89
2022-12-29T03:02:52.023Z,1.82
2022-12-29T03:05:18.561Z,1.81
2022-12-29T03:07:44.925Z,1.83
2022-12-29T03:10:11.317Z,1.78
2022-12-29T03:12:37.709Z,1.82
2022-12-29T03:15:04.330Z,1.61
2022-12-29T03:17:31.764Z,1.73
2022-12-29T03:19:58.124Z,1.86
2022-12-29T03:22:24.498Z,1.89
2022-12-29T03:24:51.058Z,1.80
2022-12-29T03:27:17.673Z,1.72
2022-12-29T03:29:44.716Z,1.75
2022-12-29T03:32:11.149Z,1.77
2022-12-29T03:34:37.492Z,1.69
2022-12-29T03:37:03.911Z,1.71
2022-12-29T03:39:31.428Z,1.51
2022-12-29T03:41:57.889Z,1.58
2022-12-29T03:44:24.344Z,1.66
2022-12-29T03:46:50.705Z,1.57
2022-12-29T03:49:17.387Z,1.62
2022-12-29T03:51:44.893Z,1.65
2022-12-29T03:54:11.417Z,1.62
2022-12-29T03:56:37.758Z,1.53
2022-12-29T03:59:04.141Z,1.61
2022-12-29T04:01:30.601Z,1.56
2022-12-29T04:03:57.214Z,1.47
2022-12-29T04:06:23.913Z,1.71
2022-12-29T04:08:50.290Z,1.48
2022-12-29T04:11:16.769Z,1.52
2022-12-29T04:13:44.897Z,1.42
2022-12-29T04:16:11.429Z,1.44
2022-12-29T04:18:38.269Z,1.50
2022-12-29T04:21:04.651Z,1.63
2022-12-29T04:23:31.034Z,1.46
2022-12-29T04:25:57.364Z,1.51
2022-12-29T04:28:23.743Z,1.60
2022-12-29T04:30:50.353Z,1.74
2022-12-29T04:33:16.988Z,1.57
2022-12-29T04:35:45.802Z,1.63
2022-12-29T04:38:14.570Z,1.72
2022-12-29T04:40:41.159Z,1.77
2022-12-29T04:43:07.727Z,1.91
2022-12-29T04:45:34.094Z,1.82
2022-12-29T04:48:01.253Z,1.65
2022-12-29T04:50:29.947Z,1.72
2022-12-29T04:52:56.352Z,1.72
2022-12-29T04:55:22.798Z,1.76
2022-12-29T04:57:49.570Z,1.83
2022-12-29T05:00:16.019Z,1.95
2022-12-29T05:02:42.567Z,1.58
2022-12-29T05:05:09.143Z,1.87
2022-12-29T05:07:35.688Z,1.80
2022-12-29T05:10:02.152Z,1.69
2022-12-29T05:12:28.852Z,1.73
2022-12-29T05:14:55.420Z,1.59
2022-12-29T05:17:22.207Z,1.66
2022-12-29T05:19:49.669Z,1.63
2022-12-29T05:22:16.312Z,1.70
2022-12-29T05:24:46.137Z,1.83
2022-12-29T05:27:12.523Z,2.02
2022-12-29T05:29:39.168Z,1.77
2022-12-29T05:32:05.651Z,1.78
2022-12-29T05:34:31.997Z,1.88
2022-12-29T05:36:58.772Z,1.92
2022-12-29T05:39:25.433Z,1.87
2022-12-29T05:41:52.041Z,2.25
2022-12-29T05:44:18.402Z,2.12
2022-12-29T05:46:44.906Z,2.03
2022-12-29T05:49:11.758Z,1.85
2022-12-29T05:51:38.476Z,1.85
2022-12-29T05:54:07.116Z,2.15
2022-12-29T05:56:33.511Z,1.97
2022-12-29T05:59:00.409Z,1.85
2022-12-29T06:01:27.832Z,1.96
2022-12-29T06:03:54.345Z,1.84
2022-12-29T06:06:21.161Z,1.93
2022-12-29T06:08:48.264Z,1.88
2022-12-29T06:11:14.675Z,1.88
2022-12-29T06:13:41.677Z,1.92
2022-12-29T06:16:09.183Z,2.14
2022-12-29T06:18:35.827Z,1.79
2022-12-29T06:21:02.510Z,1.95
2022-12-29T06:23:28.892Z,1.86
2022-12-29T06:25:55.497Z,1.81
2022-12-29T06:28:23.894Z,1.72
2022-12-29T06:30:50.351Z,1.80
2022-12-29T06:33:18.950Z,1.77
2022-12-29T06:35:46.667Z,1.98
2022-12-29T06:38:15.694Z,1.88
2022-12-29T06:40:42.899Z,1.93
2022-12-29T06:43:09.263Z,1.99
2022-12-29T06:45:38.010Z,1.80
2022-12-29T06:48:05.192Z,1.76
2022-12-29T06:50:31.594Z,1.71
2022-12-29T06:52:58.037Z,1.96
2022-12-29T06:55:25.532Z,1.59
2022-12-29T06:57:51.916Z,1.66
2022-12-29T07:00:22.725Z,1.57
2022-12-29T07:02:49.814Z,1.76
2022-12-29T07:05:18.414Z,1.68
2022-12-29T07:07:45.119Z,1.67
2022-12-29T07:10:11.593Z,1.76
2022-12-29T07:12:37.972Z,1.74
2022-12-29T07:15:04.388Z,1.63
2022-12-29T07:17:33.314Z,1.53
2022-12-29T07:20:00.365Z,1.76
2022-12-29T07:22:26.813Z,1.48
2022-12-29T07:24:53.255Z,1.73
2022-12-29T07:27:19.697Z,1.55
2022-12-29T07:29:46.412Z,1.71
2022-12-29T07:32:13.138Z,2.00
2022-12-29T07:34:41.196Z,1.52
2022-12-29T07:37:07.589Z,1.62
2022-12-29T07:39:34.316Z,1.57
2022-12-29T07:42:05.335Z,1.71
2022-12-29T07:44:33.114Z,1.71
2022-12-29T07:46:59.836Z,1.52
2022-12-29T07:49:27.312Z,1.63
2022-12-29T07:51:53.704Z,1.61
2022-12-29T07:54:20.464Z,1.58
2022-12-29T07:56:48.867Z,1.51
2022-12-29T07:59:15.623Z,1.58
2022-12-29T08:01:42.167Z,1.52
2022-12-29T08:04:08.663Z,1.61
2022-12-29T08:06:37.142Z,1.73
2022-12-29T08:09:11.348Z,1.46
2022-12-29T08:11:41.304Z,1.61
2022-12-29T08:14:07.716Z,1.41
2022-12-29T08:16:34.181Z,1.45
2022-12-29T08:19:00.568Z,1.46
2022-12-29T08:21:26.917Z,1.45
2022-12-29T08:23:53.621Z,1.46
2022-12-29T08:26:20.179Z,1.57
2022-12-29T08:28:47.182Z,1.30
2022-12-29T08:31:13.808Z,1.26
2022-12-29T08:33:40.203Z,1.37
2022-12-29T08:36:06.553Z,1.39
2022-12-29T08:38:33.023Z,1.20
2022-12-29T08:40:59.431Z,1.36
2022-12-29T08:43:25.835Z,1.17
2022-12-29T08:45:53.037Z,1.27
2022-12-29T08:48:19.417Z,1.38
2022-12-29T08:50:50.268Z,1.44
2022-12-29T08:53:16.816Z,1.13
2022-12-29T08:55:43.500Z,1.14
2022-12-29T08:58:12.657Z,1.25
2022-12-29T09:00:39.056Z,1.42
2022-12-29T09:03:05.631Z,1.15
2022-12-29T09:05:32.130Z,1.25
2022-12-29T09:07:58.819Z,1.29
2022-12-29T09:10:25.463Z,1.28
2022-12-29T09:12:51.883Z,1.23
2022-12-29T09:15:19.263Z,1.13
2022-12-29T09:17:45.950Z,1.23
2022-12-29T09:20:12.530Z,1.50
2022-12-29T09:22:39.326Z,1.59
2022-12-29T09:25:05.948Z,1.53
2022-12-29T09:27:32.307Z,1.68
2022-12-29T09:29:58.785Z,1.62
2022-12-29T09:32:28.530Z,1.50
2022-12-29T09:34:57.509Z,1.40
2022-12-29T09:37:24.402Z,1.56
2022-12-29T09:39:54.439Z,1.70
2022-12-29T09:42:21.225Z,1.47
2022-12-29T09:44:47.608Z,1.53
2022-12-29T09:47:13.986Z,1.37
2022-12-29T09:49:40.518Z,1.47
2022-12-29T09:52:07.029Z,1.24
2022-12-29T09:54:33.730Z,1.42
2022-12-29T09:57:00.095Z,1.37
2022-12-29T09:59:26.794Z,1.28
2022-12-29T10:01:53.319Z,1.00
2022-12-29T10:04:19.834Z,1.00
2022-12-29T10:07:19.413Z,1.40
2022-12-29T10:09:32.529Z,0.85
2022-12-29T10:11:58.905Z,0.94
2022-12-29T10:14:25.535Z,0.77
2022-12-29T10:16:53.193Z,0.93
2022-12-29T10:19:19.781Z,0.92
2022-12-29T10:21:47.539Z,1.11
2022-12-29T10:24:13.913Z,0.96
2022-12-29T10:26:40.390Z,0.98
2022-12-29T10:29:06.752Z,1.16
2022-12-29T10:31:33.298Z,1.14
2022-12-29T10:33:59.867Z,0.93
2022-12-29T10:36:26.281Z,0.93
2022-12-29T10:38:52.772Z,0.79
2022-12-29T10:41:19.242Z,1.03
2022-12-29T10:43:46.831Z,0.76
2022-12-29T10:46:13.257Z,0.81
2022-12-29T10:48:39.686Z,0.93
2022-12-29T10:51:08.321Z,0.89
2022-12-29T10:53:34.729Z,0.82
2022-12-29T10:56:01.168Z,0.86
2022-12-29T10:58:27.535Z,0.77
2022-12-29T11:00:54.342Z,0.73
2022-12-29T11:03:21.100Z,0.85
2022-12-29T11:05:49.432Z,0.87
2022-12-29T11:08:15.802Z,0.66
2022-12-29T11:10:42.260Z,0.77
2022-12-29T11:13:08.663Z,0.72
2022-12-29T11:15:35.163Z,0.74
2022-12-29T11:18:01.562Z,0.85
2022-12-29T11:20:27.943Z,0.82
2022-12-29T11:22:54.500Z,0.87
2022-12-29T11:25:20.865Z,0.91
2022-12-29T11:27:47.468Z,0.84
2022-12-29T11:30:13.818Z,0.67
2022-12-29T11:32:40.167Z,0.80
2022-12-29T11:35:06.545Z,0.58
2022-12-29T11:37:32.913Z,0.62
2022-12-29T11:39:59.656Z,0.54
2022-12-29T11:42:26.261Z,0.67
2022-12-29T11:44:52.625Z,0.83
2022-12-29T11:47:19.111Z,0.65
2022-12-29T11:49:45.773Z,0.62
2022-12-29T11:52:12.123Z,0.68
2022-12-29T11:54:38.515Z,0.69
2022-12-29T11:57:04.855Z,0.73
2022-12-29T11:59:34.412Z,0.67
2022-12-29T12:02:08.652Z,0.72
2022-12-29T12:04:35.127Z,0.78
2022-12-29T12:07:02.204Z,0.81
2022-12-29T12:09:28.918Z,0.87
2022-12-29T12:11:59.363Z,0.90
2022-12-29T12:14:25.763Z,0.84
2022-12-29T12:16:52.293Z,0.82
2022-12-29T12:19:18.708Z,1.22
2022-12-29T12:21:46.191Z,1.31
2022-12-29T12:24:12.697Z,1.30
2022-12-29T12:26:41.396Z,1.52
2022-12-29T12:29:11.205Z,1.82
2022-12-29T12:31:38.147Z,1.93
2022-12-29T12:34:04.676Z,1.82
2022-12-29T12:36:31.628Z,1.83
2022-12-29T12:38:58.023Z,1.95
2022-12-29T12:41:25.313Z,1.88
2022-12-29T12:43:53.155Z,2.05
2022-12-29T12:46:19.910Z,2.16
2022-12-29T12:48:49.029Z,2.05
2022-12-29T12:51:15.451Z,2.16
2022-12-29T12:53:41.926Z,2.05
2022-12-29T12:56:08.392Z,1.99
2022-12-29T12:58:34.800Z,2.40
2022-12-29T13:01:01.360Z,2.30
2022-12-29T13:03:29.545Z,1.87
2022-12-29T13:05:56.038Z,1.79
2022-12-29T13:08:22.447Z,1.67
2022-12-29T13:10:53.035Z,1.57
2022-12-29T13:13:19.822Z,1.48
2022-12-29T13:15:46.453Z,1.27
2022-12-29T13:18:12.837Z,0.90
2022-12-29T13:20:39.206Z,1.00
2022-12-29T13:23:05.574Z,0.94
2022-12-29T13:25:31.969Z,0.66
2022-12-29T13:27:59.285Z,0.56
2022-12-29T13:30:25.674Z,0.60
2022-12-29T13:32:52.260Z,0.50
2022-12-29T13:35:18.886Z,0.61
2022-12-29T13:37:45.599Z,0.61
2022-12-29T13:40:12.115Z,0.85
2022-12-29T13:42:39.577Z,0.97
2022-12-29T13:45:06.211Z,1.24
2022-12-29T13:47:32.541Z,0.92
2022-12-29T13:49:58.945Z,1.19
2022-12-29T13:52:25.432Z,1.20
2022-12-29T13:54:51.814Z,1.21
2022-12-29T13:57:22.699Z,1.34
2022-12-29T13:59:52.207Z,1.12
2022-12-29T14:02:18.861Z,1.26
2022-12-29T14:04:45.275Z,1.45
2022-12-29T14:07:11.983Z,1.46
2022-12-29T14:09:38.346Z,1.38
2022-12-29T14:12:04.700Z,1.63
2022-12-29T14:14:31.109Z,1.46
2022-12-29T14:16:57.545Z,1.40
2022-12-29T14:19:24.040Z,1.64
2022-12-29T14:21:50.467Z,1.40
2022-12-29T14:24:16.898Z,1.49
2022-12-29T14:26:43.400Z,2.44
2022-12-29T14:29:12.096Z,1.83
2022-12-29T14:31:38.471Z,1.60
2022-12-29T14:34:05.960Z,1.64
2022-12-29T14:36:32.516Z,1.52
2022-12-29T14:38:58.941Z,1.73
2022-12-29T14:41:25.479Z,1.73
2022-12-29T14:43:53.005Z,1.61
2022-12-29T14:46:19.419Z,1.72
2022-12-29T14:48:46.124Z,1.78
2022-12-29T14:51:12.501Z,1.76
2022-12-29T14:53:39.075Z,1.65
2022-12-29T14:56:06.786Z,1.59
2022-12-29T14:58:33.407Z,1.71
2022-12-29T15:01:00.257Z,1.64
2022-12-29T15:03:26.788Z,1.67
2022-12-29T15:05:53.635Z,1.66
2022-12-29T15:08:20.163Z,1.78
2022-12-29T15:10:47.312Z,1.92
2022-12-29T15:13:14.050Z,2.49
2022-12-29T15:15:40.448Z,2.38
2022-12-29T15:18:06.898Z,2.12
2022-12-29T15:20:34.274Z,1.87
2022-12-29T15:23:00.662Z,1.93
2022-12-29T15:25:27.103Z,1.98
2022-12-29T15:27:53.653Z,2.16
2022-12-29T15:30:21.721Z,2.19
2022-12-29T15:32:48.134Z,2.34
2022-12-29T15:35:14.529Z,2.17
2022-12-29T15:37:41.004Z,2.09
2022-12-29T15:40:07.612Z,2.19
2022-12-29T15:42:33.955Z,2.26
2022-12-29T15:45:10.264Z,2.42
2022-12-29T15:47:37.641Z,2.29
2022-12-29T15:50:04.011Z,2.31
2022-12-29T15:52:30.741Z,2.05
2022-12-29T15:54:59.532Z,2.23
2022-12-29T15:57:25.921Z,2.32
2022-12-29T15:59:52.316Z,2.14
2022-12-29T16:02:19.933Z,2.10
2022-12-29T16:05:16.016Z,2.10
2022-12-29T16:07:39.225Z,2.33
2022-12-29T16:10:09.902Z,2.63
2022-12-29T16:12:36.337Z,2.44
2022-12-29T16:15:02.747Z,2.58
2022-12-29T16:17:31.351Z,2.45
2022-12-29T16:19:59.646Z,2.61
2022-12-29T16:22:26.476Z,2.07
2022-12-29T16:27:36.364Z,2.23
2022-12-29T17:53:40.459Z,3.50
2022-12-29T17:56:09.117Z,3.18
2022-12-29T17:58:35.849Z,3.53
2022-12-29T18:14:31.905Z,3.63
2022-12-29T18:16:58.875Z,3.42
2022-12-29T18:19:29.726Z,3.44
2022-12-29T18:22:00.499Z,4.03
2022-12-29T18:24:29.372Z,3.74
2022-12-29T18:26:57.259Z,3.70
2022-12-29T18:29:23.709Z,3.77
2022-12-29T18:34:34.089Z,3.78
2022-12-29T18:37:00.453Z,4.04
2022-12-29T18:39:29.792Z,4.03
2022-12-29T18:41:56.639Z,3.96
2022-12-29T18:44:22.972Z,3.73
2022-12-29T18:46:49.366Z,3.91
2022-12-29T18:49:15.763Z,4.38
2022-12-29T18:51:42.096Z,4.56
2022-12-29T18:54:08.469Z,4.67
2022-12-29T18:56:35.880Z,4.94
2022-12-29T18:59:02.255Z,4.89
2022-12-29T19:01:28.759Z,4.90
2022-12-29T19:03:55.265Z,4.71
2022-12-29T19:06:23.691Z,4.87
2022-12-29T19:08:50.119Z,4.94
2022-12-29T19:11:16.695Z,4.78
2022-12-29T19:13:43.397Z,4.48
2022-12-29T19:16:09.801Z,4.51
2022-12-29T19:18:45.227Z,4.44
2022-12-29T19:21:13.375Z,4.18
2022-12-29T19:23:39.922Z,4.77
2022-12-29T19:26:06.283Z,4.61
2022-12-29T19:28:34.970Z,5.09
2022-12-29T19:31:01.404Z,5.02
2022-12-29T19:33:27.801Z,4.95
2022-12-29T19:35:54.416Z,4.72
2022-12-29T19:38:20.779Z,4.91
2022-12-29T19:40:47.172Z,4.18
2022-12-29T19:43:13.580Z,3.96
2022-12-29T19:45:39.943Z,3.60
2022-12-29T19:48:06.279Z,3.47
2022-12-29T19:50:32.621Z,3.25
2022-12-29T19:53:05.019Z,3.20
2022-12-29T19:55:32.114Z,3.16
2022-12-29T19:57:58.485Z,3.19
2022-12-29T20:00:24.873Z,3.42
2022-12-29T20:02:51.711Z,3.22
2022-12-29T20:05:18.166Z,3.22
2022-12-29T20:07:44.729Z,2.94
2022-12-29T20:10:11.104Z,3.33
2022-12-29T20:12:37.491Z,2.91
2022-12-29T20:15:03.855Z,2.48
2022-12-29T20:18:02.267Z,2.21
2022-12-29T20:20:17.715Z,2.07
2022-12-29T20:22:44.063Z,1.73
2022-12-29T20:25:43.648Z,1.42
2022-12-29T20:27:56.980Z,1.37
2022-12-29T20:30:23.431Z,1.37
2022-12-29T20:32:49.824Z,1.32
2022-12-29T20:35:16.187Z,1.31
2022-12-29T20:37:42.584Z,1.15
2022-12-29T20:40:08.969Z,1.26
2022-12-29T20:42:35.529Z,1.49
2022-12-29T20:45:04.494Z,1.64
2022-12-29T20:47:31.140Z,1.88
2022-12-29T20:49:57.747Z,1.73
2022-12-29T20:52:24.357Z,1.49
2022-12-29T20:54:50.738Z,1.36
2022-12-29T20:57:18.045Z,1.31
2022-12-29T20:59:44.670Z,1.14
2022-12-29T21:02:11.548Z,1.23
2022-12-29T21:05:05.551Z,1.00
2022-12-29T21:07:24.413Z,0.97
2022-12-29T21:09:52.821Z,0.92
2022-12-29T21:12:19.264Z,0.84
2022-12-29T21:14:46.180Z,0.71
2022-12-29T21:17:13.024Z,0.72
2022-12-29T21:19:39.511Z,0.58
2022-12-29T21:22:10.057Z,0.46
2022-12-29T21:24:36.398Z,0.51
2022-12-29T21:27:03.745Z,0.34
2022-12-29T21:29:30.114Z,0.29
2022-12-29T21:31:59.807Z,0.34
2022-12-29T21:34:30.524Z,0.23
2022-12-29T21:36:59.244Z,0.19
2022-12-29T21:39:25.928Z,0.27
2022-12-29T21:41:52.310Z,0.22
2022-12-29T21:44:20.863Z,0.20
2022-12-29T21:46:47.377Z,0.33
2022-12-29T21:49:13.756Z,0.15
2022-12-29T21:51:40.384Z,0.13
2022-12-29T21:54:06.836Z,0.15
2022-12-29T21:56:33.241Z,0.14
2022-12-29T21:58:59.693Z,0.76
2022-12-29T22:01:26.543Z,0.58
2022-12-29T22:03:53.199Z,0.18
2022-12-29T22:06:19.661Z,0.13
2022-12-29T22:08:46.089Z,0.12
2022-12-29T22:11:12.681Z,0.08
2022-12-29T22:13:40.393Z,0.34
2022-12-29T22:16:06.945Z,0.18
2022-12-29T22:18:34.392Z,0.13
2022-12-29T22:21:00.799Z,0.11
2022-12-29T22:23:27.432Z,0.11
2022-12-29T22:25:54.969Z,0.14
2022-12-29T22:28:21.503Z,0.26
2022-12-29T22:30:54.993Z,0.08
2022-12-29T22:33:21.394Z,0.15
2022-12-29T22:35:47.747Z,0.10
2022-12-29T22:38:14.133Z,0.18
2022-12-29T22:40:40.617Z,0.14
2022-12-29T22:43:12.952Z,0.16
2022-12-29T22:45:40.013Z,0.13
2022-12-29T22:48:06.427Z,0.17
2022-12-29T22:50:32.754Z,0.12
2022-12-29T22:52:59.228Z,0.17
2022-12-29T22:55:26.006Z,0.19
2022-12-29T22:57:52.855Z,0.22
2022-12-29T23:00:19.203Z,0.21
2022-12-29T23:02:45.781Z,0.11
2022-12-29T23:05:12.515Z,0.21
2022-12-29T23:07:39.332Z,0.16
2022-12-29T23:10:05.909Z,0.11
2022-12-29T23:12:32.507Z,0.19
2022-12-29T23:14:59.019Z,0.15
2022-12-29T23:17:25.478Z,0.19
2022-12-29T23:19:52.177Z,0.14
2022-12-29T23:22:18.532Z,0.17
2022-12-29T23:24:44.893Z,0.18
2022-12-29T23:27:11.228Z,0.20
2022-12-29T23:29:37.842Z,0.18
2022-12-29T23:32:04.427Z,0.18
2022-12-29T23:34:30.931Z,0.16
2022-12-29T23:36:57.463Z,0.15
2022-12-29T23:39:23.803Z,0.19
2022-12-29T23:41:50.234Z,0.19
2022-12-29T23:44:16.793Z,0.23
2022-12-29T23:46:43.613Z,0.20
2022-12-29T23:49:10.036Z,0.17
2022-12-29T23:51:36.493Z,0.15
2022-12-29T23:54:03.175Z,0.19
2022-12-29T23:56:29.547Z,0.16
2022-12-29T23:58:56.233Z,0.17
